createdAt,value
2023-04-08T13:06:46.201Z,5.62
2023-04-08T13:09:12.509Z,5.66
2023-04-08T13:11:38.851Z,5.97
2023-04-08T13:14:05.149Z,5.86
2023-04-08T13:16:32.084Z,5.75
2023-04-08T13:18:58.445Z,5.93
2023-04-08T13:21:24.847Z,5.98
2023-04-08T13:23:51.228Z,6.33
2023-04-08T13:26:18.544Z,6.21
2023-04-08T13:28:57.149Z,5.99
2023-04-08T13:31:24.450Z,6.15
2023-04-08T13:33:50.771Z,6.31
2023-04-08T13:36:18.127Z,6.29
2023-04-08T13:38:46.097Z,6.31
2023-04-08T13:41:15.550Z,6.59
2023-04-08T13:43:42.112Z,6.44
2023-04-08T13:46:08.476Z,6.71
2023-04-08T13:48:34.803Z,6.86
2023-04-08T13:51:11.217Z,6.73
2023-04-08T13:53:37.542Z,6.79
2023-04-08T13:56:03.889Z,6.93
2023-04-08T13:58:30.453Z,6.34
2023-04-08T14:00:57.143Z,6.42
2023-04-08T14:03:26.356Z,6.68
2023-04-08T14:05:53.792Z,6.38
2023-04-08T14:08:25.872Z,6.32
2023-04-08T14:10:55.613Z,6.30
2023-04-08T14:13:21.902Z,6.25
2023-04-08T14:15:49.585Z,6.33
2023-04-08T14:18:18.637Z,6.21
2023-04-08T14:20:44.975Z,6.11
2023-04-08T14:23:13.390Z,6.14
2023-04-08T14:25:39.745Z,6.33
2023-04-08T14:28:06.307Z,6.41
2023-04-08T14:30:39.062Z,6.57
2023-04-08T14:33:06.141Z,6.48
2023-04-08T14:35:32.926Z,6.35
2023-04-08T14:38:05.975Z,6.33
2023-04-08T14:40:33.284Z,6.47
2023-04-08T14:42:59.588Z,6.38
2023-04-08T14:45:25.910Z,6.23
2023-04-08T14:47:52.311Z,6.26
2023-04-08T14:50:19.492Z,6.17
2023-04-08T14:52:48.917Z,6.04
2023-04-08T14:55:22.580Z,5.97
2023-04-08T14:57:48.990Z,5.87
2023-04-08T15:00:15.557Z,5.91
2023-04-08T15:02:42.062Z,5.90
2023-04-08T15:05:08.620Z,5.80
2023-04-08T15:07:37.059Z,5.76
2023-04-08T15:10:03.448Z,5.68
2023-04-08T15:12:29.807Z,5.22
2023-04-08T15:14:56.310Z,5.27
2023-04-08T15:17:32.249Z,5.30
2023-04-08T15:19:59.023Z,5.17
2023-04-08T15:22:25.658Z,5.08
2023-04-08T15:24:51.971Z,5.03
2023-04-08T15:27:19.621Z,5.03
2023-04-08T15:29:46.090Z,5.04
2023-04-08T15:32:12.373Z,5.20
2023-04-08T15:34:38.661Z,5.08
2023-04-08T15:37:06.413Z,5.07
2023-04-08T15:39:32.731Z,5.12
2023-04-08T15:41:59.087Z,5.10
2023-04-08T15:44:25.522Z,5.10
2023-04-08T15:46:52.038Z,5.14
2023-04-08T15:49:18.330Z,5.23
2023-04-08T15:51:44.772Z,5.13
2023-04-08T15:54:11.597Z,5.12
2023-04-08T15:56:37.901Z,5.16
2023-04-08T15:59:04.173Z,5.19
2023-04-08T16:01:31.056Z,5.22
2023-04-08T16:03:57.493Z,5.11
2023-04-08T16:06:23.856Z,5.12
2023-04-08T16:08:50.653Z,5.14
2023-04-08T16:11:17.560Z,5.06
2023-04-08T16:13:43.911Z,4.97
2023-04-08T16:16:12.211Z,4.90
2023-04-08T16:18:39.012Z,4.94
2023-04-08T16:21:08.587Z,4.92
2023-04-08T16:23:37.458Z,5.03
2023-04-08T16:26:04.563Z,4.87
2023-04-08T16:28:30.952Z,4.81
2023-04-08T16:30:57.254Z,4.79
2023-04-08T16:33:29.692Z,4.83
2023-04-08T16:35:56.960Z,4.81
2023-04-08T16:38:24.401Z,4.71
2023-04-08T16:40:51.237Z,4.68
2023-04-08T16:43:17.693Z,4.69
2023-04-08T16:45:44.993Z,4.86
2023-04-08T16:48:12.690Z,4.70
2023-04-08T16:50:39.412Z,4.73
2023-04-08T16:53:05.737Z,4.58
2023-04-08T16:55:35.952Z,4.67
2023-04-08T16:58:02.972Z,4.72
2023-04-08T17:00:30.003Z,4.65
2023-04-08T17:02:58.637Z,4.58
2023-04-08T17:05:26.178Z,4.52
2023-04-08T17:07:52.936Z,4.51
2023-04-08T17:10:19.526Z,4.61
2023-04-08T17:12:46.393Z,4.52
2023-04-08T17:15:12.688Z,4.55
2023-04-08T17:17:39.056Z,4.55
2023-04-08T17:20:05.645Z,4.58
2023-04-08T17:22:31.925Z,4.59
2023-04-08T17:24:58.747Z,4.46
2023-04-08T17:27:25.038Z,4.41
2023-04-08T17:29:57.359Z,4.36
2023-04-08T17:32:24.657Z,4.42
2023-04-08T17:34:51.757Z,4.42
2023-04-08T17:37:18.120Z,4.50
2023-04-08T17:39:44.643Z,4.54
2023-04-08T17:42:11.312Z,4.61
2023-04-08T17:44:37.869Z,4.64
2023-04-08T17:47:04.274Z,4.56
2023-04-08T17:49:30.759Z,4.69
2023-04-08T17:51:57.666Z,4.47
2023-04-08T17:54:24.890Z,4.37
2023-04-08T17:56:51.235Z,4.34
2023-04-08T17:59:17.557Z,4.33
2023-04-08T18:01:44.068Z,4.26
2023-04-08T18:04:12.340Z,4.34
2023-04-08T18:06:38.848Z,4.58
2023-04-08T18:09:05.200Z,4.49
2023-04-08T18:11:31.568Z,4.27
2023-04-08T18:14:02.050Z,4.18
2023-04-08T18:16:28.444Z,4.15
2023-04-08T18:18:54.734Z,4.15
2023-04-08T18:21:22.153Z,4.17
2023-04-08T18:23:49.850Z,4.28
2023-04-08T18:26:16.598Z,4.21
2023-04-08T18:28:43.084Z,4.20
2023-04-08T18:31:09.428Z,4.12
2023-04-08T18:33:36.317Z,4.22
2023-04-08T18:36:09.534Z,4.43
2023-04-08T18:38:36.565Z,4.17
2023-04-08T18:41:03.676Z,4.17
2023-04-08T18:43:30.009Z,4.21
2023-04-08T18:45:56.381Z,4.22
2023-04-08T18:48:22.756Z,3.99
2023-04-08T18:50:49.114Z,3.89
2023-04-08T18:53:15.384Z,3.96
2023-04-08T18:55:42.078Z,4.19
2023-04-08T18:58:08.370Z,4.32
2023-04-08T19:00:35.649Z,4.15
2023-04-08T19:03:03.412Z,4.12
2023-04-08T19:05:31.461Z,3.96
2023-04-08T19:07:57.993Z,3.99
2023-04-08T19:10:25.314Z,3.93
2023-04-08T19:12:52.023Z,3.90
2023-04-08T19:15:18.374Z,3.75
2023-04-08T19:17:44.689Z,3.77
2023-04-08T19:20:11.340Z,3.84
2023-04-08T19:22:38.533Z,3.71
2023-04-08T19:25:05.089Z,3.74
2023-04-08T19:27:31.860Z,3.86
2023-04-08T19:29:58.314Z,3.72
2023-04-08T19:32:24.698Z,3.74
2023-04-08T19:34:51.026Z,3.76
2023-04-08T19:37:17.362Z,3.76
2023-04-08T19:39:43.633Z,3.75
2023-04-08T19:42:10.869Z,3.74
2023-04-08T19:44:37.159Z,3.81
2023-04-08T19:47:04.535Z,3.76
2023-04-08T19:49:30.847Z,3.84
2023-04-08T19:51:57.203Z,3.81
2023-04-08T19:54:23.844Z,3.86
2023-04-08T19:56:50.150Z,3.77
2023-04-08T19:59:16.710Z,3.76
2023-04-08T20:01:43.091Z,3.72
2023-04-08T20:04:09.511Z,3.74
2023-04-08T20:06:36.610Z,3.75
2023-04-08T20:09:05.560Z,3.77
2023-04-08T20:11:32.614Z,3.70
2023-04-08T20:13:59.102Z,3.70
2023-04-08T20:16:25.583Z,3.66
2023-04-08T20:18:52.045Z,3.68
2023-04-08T20:21:18.625Z,3.63
2023-04-08T20:23:45.017Z,3.61
2023-04-08T20:26:12.351Z,3.66
2023-04-08T20:28:38.804Z,3.65
2023-04-08T20:31:05.535Z,3.65
2023-04-08T20:33:31.854Z,3.58
2023-04-08T20:35:58.199Z,3.56
2023-04-08T20:38:24.937Z,3.55
2023-04-08T20:40:51.203Z,3.51
2023-04-08T20:43:17.484Z,3.55
2023-04-08T20:45:49.282Z,3.53
2023-04-08T20:48:16.497Z,3.53
2023-04-08T20:50:42.776Z,3.50
2023-04-08T20:53:10.184Z,3.47
2023-04-08T20:55:36.487Z,3.46
2023-04-08T20:58:05.669Z,3.48
2023-04-08T21:00:32.028Z,3.45
2023-04-08T21:02:58.388Z,3.36
2023-04-08T21:05:24.836Z,3.34
2023-04-08T21:07:51.150Z,3.39
2023-04-08T21:10:17.737Z,3.27
2023-04-08T21:12:45.041Z,3.14
2023-04-08T21:15:11.395Z,3.11
2023-04-08T21:17:37.773Z,3.08
2023-04-08T21:20:04.572Z,3.04
2023-04-08T21:22:32.175Z,3.02
2023-04-08T21:24:58.519Z,3.03
2023-04-08T21:27:24.848Z,3.04
2023-04-08T21:29:54.181Z,2.98
2023-04-08T21:32:20.496Z,2.95
2023-04-08T21:34:46.854Z,2.98
2023-04-08T21:37:13.256Z,2.97
2023-04-08T21:39:39.586Z,3.28
2023-04-08T21:42:06.388Z,3.23
2023-04-08T21:44:33.322Z,3.22
2023-04-08T21:47:02.074Z,3.00
2023-04-08T21:49:37.789Z,2.93
2023-04-08T21:52:04.821Z,2.86
2023-04-08T21:54:31.156Z,2.95
2023-04-08T21:56:59.535Z,2.82
2023-04-08T21:59:26.015Z,2.83
2023-04-08T22:01:52.351Z,2.77
2023-04-08T22:04:19.608Z,2.75
2023-04-08T22:06:49.133Z,2.44
2023-04-08T22:09:25.695Z,2.70
2023-04-08T22:11:51.976Z,2.66
2023-04-08T22:14:18.382Z,2.63
2023-04-08T22:16:45.049Z,2.64
2023-04-08T22:19:11.724Z,2.56
2023-04-08T22:21:38.031Z,2.50
2023-04-08T22:24:06.774Z,2.46
2023-04-08T22:26:33.094Z,2.48
2023-04-08T22:28:59.397Z,2.46
2023-04-08T22:31:25.869Z,2.36
2023-04-08T22:33:52.359Z,2.38
2023-04-08T22:36:20.783Z,2.37
2023-04-08T22:38:47.091Z,2.33
2023-04-08T22:41:17.915Z,2.29
2023-04-08T22:43:44.221Z,2.17
2023-04-08T22:46:10.783Z,2.15
2023-04-08T22:48:37.119Z,2.14
2023-04-08T22:51:04.036Z,2.09
2023-04-08T22:53:30.314Z,2.06
2023-04-08T22:55:57.815Z,2.04
2023-04-08T22:58:26.115Z,2.08
2023-04-08T23:00:52.384Z,2.03
2023-04-08T23:03:18.716Z,1.96
2023-04-08T23:05:45.376Z,1.83
2023-04-08T23:08:11.739Z,1.77
2023-04-08T23:10:38.042Z,1.67
2023-04-08T23:13:04.371Z,1.54
2023-04-08T23:15:31.020Z,1.46
2023-04-08T23:17:57.609Z,1.61
2023-04-08T23:20:23.987Z,1.57
2023-04-08T23:22:50.569Z,0.99
2023-04-08T23:25:16.946Z,1.39
2023-04-08T23:27:43.272Z,1.35
2023-04-08T23:30:09.747Z,1.38
2023-04-08T23:32:36.122Z,1.58
2023-04-08T23:35:02.669Z,1.54
2023-04-08T23:37:29.297Z,1.48
2023-04-08T23:39:55.657Z,1.39
2023-04-08T23:42:26.985Z,1.29
2023-04-08T23:44:54.280Z,1.21
2023-04-08T23:47:20.751Z,1.05
2023-04-08T23:49:47.159Z,0.95
2023-04-08T23:52:13.441Z,0.89
2023-04-08T23:54:40.022Z,0.85
2023-04-08T23:57:06.313Z,0.72
2023-04-08T23:59:33.079Z,0.62
